sensor_id;sensor_type;location;lat;lon;timestamp;pressure;altitude;pressure_sealevel;temperature;humidity
70833;BME280;71099;59.528;17.886;2023-07-13T00:00:06;99994.50;;;16.96;81.35
70833;BME280;71099;59.528;17.886;2023-07-13T00:02:35;99991.72;;;16.91;81.51
70833;BME280;71099;59.528;17.886;2023-07-13T00:05:00;100000.72;;;16.88;81.55
70833;BME280;71099;59.528;17.886;2023-07-13T00:07:26;99999.50;;;16.84;81.60
70833;BME280;71099;59.528;17.886;2023-07-13T00:09:51;100000.72;;;16.82;81.57
70833;BME280;71099;59.528;17.886;2023-07-13T00:12:23;100002.13;;;16.78;81.50
70833;BME280;71099;59.528;17.886;2023-07-13T00:14:49;99995.28;;;16.77;81.63
70833;BME280;71099;59.528;17.886;2023-07-13T00:17:15;99995.69;;;16.74;81.58
70833;BME280;71099;59.528;17.886;2023-07-13T00:19:40;99993.72;;;16.69;81.65
70833;BME280;71099;59.528;17.886;2023-07-13T00:22:05;99994.88;;;16.67;81.82
70833;BME280;71099;59.528;17.886;2023-07-13T00:24:31;99994.09;;;16.66;81.63
70833;BME280;71099;59.528;17.886;2023-07-13T00:26:56;99991.06;;;16.63;81.49
70833;BME280;71099;59.528;17.886;2023-07-13T00:29:21;99993.31;;;16.66;81.54
70833;BME280;71099;59.528;17.886;2023-07-13T00:31:47;99993.09;;;16.67;81.47
70833;BME280;71099;59.528;17.886;2023-07-13T00:34:12;99995.91;;;16.66;81.57
70833;BME280;71099;59.528;17.886;2023-07-13T00:36:37;99990.09;;;16.64;81.56
70833;BME280;71099;59.528;17.886;2023-07-13T00:39:03;99991.06;;;16.63;81.69
70833;BME280;71099;59.528;17.886;2023-07-13T00:41:28;99992.88;;;16.62;82.02
70833;BME280;71099;59.528;17.886;2023-07-13T00:43:54;99993.69;;;16.63;82.26
70833;BME280;71099;59.528;17.886;2023-07-13T00:46:21;99995.28;;;16.64;82.44
70833;BME280;71099;59.528;17.886;2023-07-13T00:48:47;99996.28;;;16.63;82.79
70833;BME280;71099;59.528;17.886;2023-07-13T00:51:14;99990.66;;;16.59;83.21
70833;BME280;71099;59.528;17.886;2023-07-13T00:53:41;99987.25;;;16.58;83.33
70833;BME280;71099;59.528;17.886;2023-07-13T00:56:06;99994.69;;;16.62;83.58
70833;BME280;71099;59.528;17.886;2023-07-13T00:58:32;99995.69;;;16.60;83.74
70833;BME280;71099;59.528;17.886;2023-07-13T01:00:57;99994.69;;;16.62;83.71
70833;BME280;71099;59.528;17.886;2023-07-13T01:03:22;99994.69;;;16.62;83.76
70833;BME280;71099;59.528;17.886;2023-07-13T01:05:49;99998.31;;;16.60;84.00
70833;BME280;71099;59.528;17.886;2023-07-13T01:08:15;100006.13;;;16.60;84.32
70833;BME280;71099;59.528;17.886;2023-07-13T01:10:40;100002.88;;;16.58;84.39
70833;BME280;71099;59.528;17.886;2023-07-13T01:13:07;100002.88;;;16.58;84.77
70833;BME280;71099;59.528;17.886;2023-07-13T01:15:37;100002.69;;;16.60;84.80
70833;BME280;71099;59.528;17.886;2023-07-13T01:18:03;100001.72;;;16.61;84.73
70833;BME280;71099;59.528;17.886;2023-07-13T01:20:28;100002.44;;;16.55;84.92
70833;BME280;71099;59.528;17.886;2023-07-13T01:22:54;100002.03;;;16.51;85.08
70833;BME280;71099;59.528;17.886;2023-07-13T01:25:19;99998.44;;;16.52;84.97
70833;BME280;71099;59.528;17.886;2023-07-13T01:27:45;99998.06;;;16.55;84.89
70833;BME280;71099;59.528;17.886;2023-07-13T01:30:10;99999.69;;;16.56;84.64
70833;BME280;71099;59.528;17.886;2023-07-13T01:32:36;100004.09;;;16.56;84.34
70833;BME280;71099;59.528;17.886;2023-07-13T01:35:02;99998.06;;;16.55;84.48
70833;BME280;71099;59.528;17.886;2023-07-13T01:37:28;99999.69;;;16.56;84.29
70833;BME280;71099;59.528;17.886;2023-07-13T01:39:58;100001.31;;;16.57;84.13
70833;BME280;71099;59.528;17.886;2023-07-13T01:42:23;99998.69;;;16.57;84.15
70833;BME280;71099;59.528;17.886;2023-07-13T01:44:48;100012.13;;;16.61;83.75
70833;BME280;71099;59.528;17.886;2023-07-13T01:47:14;100014.94;;;16.59;83.82
70833;BME280;71099;59.528;17.886;2023-07-13T01:49:39;100009.13;;;16.57;83.89
70833;BME280;71099;59.528;17.886;2023-07-13T01:52:04;100011.91;;;16.56;83.67
70833;BME280;71099;59.528;17.886;2023-07-13T01:54:30;100014.34;;;16.57;83.53
70833;BME280;71099;59.528;17.886;2023-07-13T01:56:55;100015.91;;;16.58;83.42
70833;BME280;71099;59.528;17.886;2023-07-13T01:59:20;100015.47;;;16.55;83.28
70833;BME280;71099;59.528;17.886;2023-07-13T02:01:46;100017.69;;;16.51;83.33
70833;BME280;71099;59.528;17.886;2023-07-13T02:04:11;100020.09;;;16.46;83.47
70833;BME280;71099;59.528;17.886;2023-07-13T02:06:36;100027.91;;;16.46;83.33
70833;BME280;71099;59.528;17.886;2023-07-13T02:09:01;100019.47;;;16.44;83.19
70833;BME280;71099;59.528;17.886;2023-07-13T02:11:27;100023.47;;;16.40;82.98
70833;BME280;71099;59.528;17.886;2023-07-13T02:13:57;100017.06;;;16.36;82.72
70833;BME280;71099;59.528;17.886;2023-07-13T02:16:23;100023.25;;;16.35;82.68
70833;BME280;71099;59.528;17.886;2023-07-13T02:18:48;100019.03;;;16.34;82.55
70833;BME280;71099;59.528;17.886;2023-07-13T02:21:17;100022.03;;;16.31;82.47
70833;BME280;71099;59.528;17.886;2023-07-13T02:23:42;100013.81;;;16.28;82.32
70833;BME280;71099;59.528;17.886;2023-07-13T02:26:08;100012.03;;;16.28;82.14
70833;BME280;71099;59.528;17.886;2023-07-13T02:28:33;100020.03;;;16.27;81.90
70833;BME280;71099;59.528;17.886;2023-07-13T02:31:08;100022.22;;;16.23;81.75
70833;BME280;71099;59.528;17.886;2023-07-13T02:33:34;100015.59;;;16.21;81.71
70833;BME280;71099;59.528;17.886;2023-07-13T02:35:59;100018.41;;;16.19;81.52
70833;BME280;71099;59.528;17.886;2023-07-13T02:38:25;100023.41;;;16.14;81.55
70833;BME280;71099;59.528;17.886;2023-07-13T02:40:51;100023.59;;;16.12;81.58
70833;BME280;71099;59.528;17.886;2023-07-13T02:43:16;100027.56;;;16.08;81.59
70833;BME280;71099;59.528;17.886;2023-07-13T02:45:44;100029.75;;;16.05;81.63
70833;BME280;71099;59.528;17.886;2023-07-13T02:48:10;100018.75;;;16.03;81.66
70833;BME280;71099;59.528;17.886;2023-07-13T02:50:35;100029.16;;;16.03;81.65
70833;BME280;71099;59.528;17.886;2023-07-13T02:53:00;100028.75;;;15.99;81.57
70833;BME280;71099;59.528;17.886;2023-07-13T02:55:26;100033.97;;;15.99;81.51
70833;BME280;71099;59.528;17.886;2023-07-13T02:57:51;100036.75;;;15.98;81.58
70833;BME280;71099;59.528;17.886;2023-07-13T03:00:16;100029.13;;;15.96;81.35
70833;BME280;71099;59.528;17.886;2023-07-13T03:02:42;100033.53;;;15.96;81.27
70833;BME280;71099;59.528;17.886;2023-07-13T03:05:07;100028.69;;;15.93;81.11
70833;BME280;71099;59.528;17.886;2023-07-13T03:07:33;100032.31;;;15.92;81.13
70833;BME280;71099;59.528;17.886;2023-07-13T03:09:58;100038.50;;;15.91;81.02
70833;BME280;71099;59.528;17.886;2023-07-13T03:12:24;100042.91;;;15.90;81.07
70833;BME280;71099;59.528;17.886;2023-07-13T03:14:50;100039.09;;;15.86;81.13
70833;BME280;71099;59.528;17.886;2023-07-13T03:17:15;100049.31;;;15.88;81.15
70833;BME280;71099;59.528;17.886;2023-07-13T03:19:41;100049.50;;;15.86;81.15
70833;BME280;71099;59.528;17.886;2023-07-13T03:22:06;100044.09;;;15.88;81.16
70833;BME280;71099;59.528;17.886;2023-07-13T03:24:32;100051.91;;;15.88;81.07
70833;BME280;71099;59.528;17.886;2023-07-13T03:26:58;100051.09;;;15.87;81.08
70833;BME280;71099;59.528;17.886;2023-07-13T03:29:23;100051.28;;;15.86;81.41
70833;BME280;71099;59.528;17.886;2023-07-13T03:31:49;100053.88;;;15.86;81.60
70833;BME280;71099;59.528;17.886;2023-07-13T03:34:14;100053.88;;;15.86;81.78
70833;BME280;71099;59.528;17.886;2023-07-13T03:36:39;100055.50;;;15.87;81.82
70833;BME280;71099;59.528;17.886;2023-07-13T03:39:04;100058.69;;;15.89;81.84
70833;BME280;71099;59.528;17.886;2023-07-13T03:41:33;100057.72;;;15.90;82.00
70833;BME280;71099;59.528;17.886;2023-07-13T03:43:59;100065.13;;;15.93;82.24
70833;BME280;71099;59.528;17.886;2023-07-13T03:46:24;100064.78;;;15.96;82.42
70833;BME280;71099;59.528;17.886;2023-07-13T03:48:49;100070.56;;;15.98;82.89
70833;BME280;71099;59.528;17.886;2023-07-13T03:51:15;100067.97;;;15.98;83.21
70833;BME280;71099;59.528;17.886;2023-07-13T03:53:41;100075.19;;;15.96;83.66
70833;BME280;71099;59.528;17.886;2023-07-13T03:56:07;100076.78;;;15.97;83.80
70833;BME280;71099;59.528;17.886;2023-07-13T03:58:42;100076.78;;;15.97;83.87
70833;BME280;71099;59.528;17.886;2023-07-13T04:01:08;100078.38;;;15.98;84.03
70833;BME280;71099;59.528;17.886;2023-07-13T04:03:34;100080.19;;;15.97;84.24
70833;BME280;71099;59.528;17.886;2023-07-13T04:06:00;100075.94;;;15.90;84.29
70833;BME280;71099;59.528;17.886;2023-07-13T04:08:29;100075.53;;;15.93;84.41
70833;BME280;71099;59.528;17.886;2023-07-13T04:10:55;100084.72;;;15.89;84.47
70833;BME280;71099;59.528;17.886;2023-07-13T04:13:20;100077.94;;;15.88;84.47
70833;BME280;71099;59.528;17.886;2023-07-13T04:15:46;100079.19;;;15.64;84.92
70833;BME280;71099;59.528;17.886;2023-07-13T04:18:11;100077.03;;;15.46;84.95
70833;BME280;71099;59.528;17.886;2023-07-13T04:20:36;100085.31;;;15.56;85.19
70833;BME280;71099;59.528;17.886;2023-07-13T04:23:01;100088.59;;;15.65;85.18
70833;BME280;71099;59.528;17.886;2023-07-13T04:25:28;100088.13;;;15.55;84.01
70833;BME280;71099;59.528;17.886;2023-07-13T04:27:53;100091.03;;;15.67;84.19
70833;BME280;71099;59.528;17.886;2023-07-13T04:30:19;100089.06;;;15.75;84.01
70833;BME280;71099;59.528;17.886;2023-07-13T04:32:44;100093.13;;;15.84;83.66
70833;BME280;71099;59.528;17.886;2023-07-13T04:35:10;100093.94;;;15.85;82.72
70833;BME280;71099;59.528;17.886;2023-07-13T04:37:35;100092.13;;;15.85;82.16
70833;BME280;71099;59.528;17.886;2023-07-13T04:40:00;100095.13;;;15.89;82.15
70833;BME280;71099;59.528;17.886;2023-07-13T04:42:26;100090.94;;;15.88;81.55
70833;BME280;71099;59.528;17.886;2023-07-13T04:44:51;100096.56;;;15.63;80.27
70833;BME280;71099;59.528;17.886;2023-07-13T04:47:17;100099.03;;;15.72;80.37
70833;BME280;71099;59.528;17.886;2023-07-13T04:49:43;100105.00;;;15.66;79.50
70833;BME280;71099;59.528;17.886;2023-07-13T04:52:09;100099.84;;;15.72;79.64
70833;BME280;71099;59.528;17.886;2023-07-13T04:54:34;100098.28;;;15.78;79.36
70833;BME280;71099;59.528;17.886;2023-07-13T04:57:00;100102.94;;;15.89;80.02
70833;BME280;71099;59.528;17.886;2023-07-13T04:59:25;100099.22;;;15.98;79.50
70833;BME280;71099;59.528;17.886;2023-07-13T05:01:50;100100.41;;;15.95;78.67
70833;BME280;71099;59.528;17.886;2023-07-13T05:04:16;100097.03;;;16.01;78.08
70833;BME280;71099;59.528;17.886;2023-07-13T05:06:41;100098.91;;;16.14;77.53
70833;BME280;71099;59.528;17.886;2023-07-13T05:09:06;100108.16;;;16.23;77.35
70833;BME280;71099;59.528;17.886;2023-07-13T05:11:32;100105.97;;;16.33;76.56
70833;BME280;71099;59.528;17.886;2023-07-13T05:13:58;100106.53;;;16.22;76.99
70833;BME280;71099;59.528;17.886;2023-07-13T05:16:23;100098.97;;;16.34;76.67
70833;BME280;71099;59.528;17.886;2023-07-13T05:18:48;100100.19;;;16.31;75.15
70833;BME280;71099;59.528;17.886;2023-07-13T05:21:14;100096.31;;;16.21;74.72
70833;BME280;71099;59.528;17.886;2023-07-13T05:23:39;100102.22;;;16.42;74.91
70833;BME280;71099;59.528;17.886;2023-07-13T05:26:06;100103.84;;;16.43;73.65
70833;BME280;71099;59.528;17.886;2023-07-13T05:28:32;100111.53;;;16.58;73.76
70833;BME280;71099;59.528;17.886;2023-07-13T05:30:57;100106.75;;;16.62;74.54
70833;BME280;71099;59.528;17.886;2023-07-13T05:33:23;100107.97;;;16.66;75.09
70833;BME280;71099;59.528;17.886;2023-07-13T05:35:48;100118.53;;;16.57;73.85
70833;BME280;71099;59.528;17.886;2023-07-13T05:38:13;100114.56;;;16.62;73.13
70833;BME280;71099;59.528;17.886;2023-07-13T05:40:39;100112.31;;;16.58;72.19
70833;BME280;71099;59.528;17.886;2023-07-13T05:43:04;100120.47;;;16.42;72.77
70833;BME280;71099;59.528;17.886;2023-07-13T05:45:29;100115.16;;;16.64;73.91
70833;BME280;71099;59.528;17.886;2023-07-13T05:47:55;100122.00;;;16.71;73.24
70833;BME280;71099;59.528;17.886;2023-07-13T05:50:20;100115.53;;;16.60;73.69
70833;BME280;71099;59.528;17.886;2023-07-13T05:52:46;100116.38;;;16.81;73.38
70833;BME280;71099;59.528;17.886;2023-07-13T05:55:11;100125.22;;;16.80;73.02
70833;BME280;71099;59.528;17.886;2023-07-13T05:57:36;100128.25;;;16.83;71.90
70833;BME280;71099;59.528;17.886;2023-07-13T06:00:02;100123.59;;;16.66;71.56
70833;BME280;71099;59.528;17.886;2023-07-13T06:02:27;100116.78;;;16.78;71.66
70833;BME280;71099;59.528;17.886;2023-07-13T06:04:53;100118.81;;;16.89;71.22
70833;BME280;71099;59.528;17.886;2023-07-13T06:07:18;100107.63;;;17.08;71.66
70833;BME280;71099;59.528;17.886;2023-07-13T06:09:43;100110.25;;;17.34;70.32
70833;BME280;71099;59.528;17.886;2023-07-13T06:12:09;100105.06;;;17.61;71.60
70833;BME280;71099;59.528;17.886;2023-07-13T06:14:34;100102.41;;;17.80;69.10
70833;BME280;71099;59.528;17.886;2023-07-13T06:17:00;100105.63;;;17.89;67.25
70833;BME280;71099;59.528;17.886;2023-07-13T06:19:25;100113.66;;;17.94;66.22
70833;BME280;71099;59.528;17.886;2023-07-13T06:21:50;100114.22;;;18.02;66.01
70833;BME280;71099;59.528;17.886;2023-07-13T06:24:16;100109.94;;;18.21;66.51
70833;BME280;71099;59.528;17.886;2023-07-13T06:26:41;100121.16;;;18.28;64.87
70833;BME280;71099;59.528;17.886;2023-07-13T06:29:07;100123.72;;;18.48;64.32
70833;BME280;71099;59.528;17.886;2023-07-13T06:31:32;100133.03;;;18.24;64.42
70833;BME280;71099;59.528;17.886;2023-07-13T06:33:57;100133.84;;;18.25;64.88
70833;BME280;71099;59.528;17.886;2023-07-13T06:36:23;100130.41;;;18.31;64.12
70833;BME280;71099;59.528;17.886;2023-07-13T06:38:48;100130.41;;;18.31;64.99
70833;BME280;71099;59.528;17.886;2023-07-13T06:41:13;100139.44;;;18.41;64.96
70833;BME280;71099;59.528;17.886;2023-07-13T06:43:39;100131.59;;;18.41;63.68
70833;BME280;71099;59.528;17.886;2023-07-13T06:46:04;100131.47;;;18.68;62.89
70833;BME280;71099;59.528;17.886;2023-07-13T06:48:29;100133.97;;;18.56;62.77
70833;BME280;71099;59.528;17.886;2023-07-13T06:50:55;100137.22;;;18.38;63.14
70833;BME280;71099;59.528;17.886;2023-07-13T06:53:21;100139.03;;;18.31;63.96
70833;BME280;71099;59.528;17.886;2023-07-13T06:55:47;100137.38;;;18.57;62.74
70833;BME280;71099;59.528;17.886;2023-07-13T06:58:14;100134.75;;;18.57;63.37
70833;BME280;71099;59.528;17.886;2023-07-13T07:00:39;100133.56;;;18.59;63.39
70833;BME280;71099;59.528;17.886;2023-07-13T07:03:05;100128.56;;;18.89;63.27
70833;BME280;71099;59.528;17.886;2023-07-13T07:05:30;100136.09;;;19.10;62.29
70833;BME280;71099;59.528;17.886;2023-07-13T07:07:55;100149.31;;;19.15;61.04
70833;BME280;71099;59.528;17.886;2023-07-13T07:10:21;100134.28;;;19.35;60.59
70833;BME280;71099;59.528;17.886;2023-07-13T07:12:47;100140.38;;;19.29;58.79
70833;BME280;71099;59.528;17.886;2023-07-13T07:15:12;100142.72;;;19.44;58.93
70833;BME280;71099;59.528;17.886;2023-07-13T07:17:38;100140.03;;;19.50;59.49
70833;BME280;71099;59.528;17.886;2023-07-13T07:20:03;100150.13;;;19.72;58.88
70833;BME280;71099;59.528;17.886;2023-07-13T07:22:29;100138.16;;;20.00;59.75
70833;BME280;71099;59.528;17.886;2023-07-13T07:24:55;100140.84;;;20.12;57.69
70833;BME280;71099;59.528;17.886;2023-07-13T07:27:20;100142.22;;;20.15;57.86
70833;BME280;71099;59.528;17.886;2023-07-13T07:29:46;100150.16;;;20.26;58.07
70833;BME280;71099;59.528;17.886;2023-07-13T07:32:11;100152.59;;;20.64;58.33
70833;BME280;71099;59.528;17.886;2023-07-13T07:34:36;100155.56;;;20.68;56.02
70833;BME280;71099;59.528;17.886;2023-07-13T07:37:02;100154.97;;;20.84;55.13
70833;BME280;71099;59.528;17.886;2023-07-13T07:39:27;100145.59;;;21.18;55.98
70833;BME280;71099;59.528;17.886;2023-07-13T07:41:53;100154.31;;;21.00;54.92
70833;BME280;71099;59.528;17.886;2023-07-13T07:44:18;100159.19;;;20.67;56.07
70833;BME280;71099;59.528;17.886;2023-07-13T07:46:43;100148.22;;;20.40;55.43
70833;BME280;71099;59.528;17.886;2023-07-13T07:49:09;100145.44;;;20.71;55.05
70833;BME280;71099;59.528;17.886;2023-07-13T07:51:35;100158.53;;;21.31;56.17
70833;BME280;71099;59.528;17.886;2023-07-13T07:54:01;100152.63;;;21.70;53.63
70833;BME280;71099;59.528;17.886;2023-07-13T07:56:26;100156.84;;;21.48;51.72
70833;BME280;71099;59.528;17.886;2023-07-13T07:58:51;100156.06;;;21.94;53.54
70833;BME280;71099;59.528;17.886;2023-07-13T08:01:17;100156.19;;;22.22;50.84
70833;BME280;71099;59.528;17.886;2023-07-13T08:03:42;100159.84;;;21.63;50.93
70833;BME280;71099;59.528;17.886;2023-07-13T08:06:07;100169.41;;;21.69;51.47
70833;BME280;71099;59.528;17.886;2023-07-13T08:08:33;100166.50;;;22.01;51.01
70833;BME280;71099;59.528;17.886;2023-07-13T08:11:01;100163.78;;;22.35;50.91
70833;BME280;71099;59.528;17.886;2023-07-13T08:13:27;100167.34;;;22.41;49.62
70833;BME280;71099;59.528;17.886;2023-07-13T08:15:52;100171.94;;;21.64;50.58
70833;BME280;71099;59.528;17.886;2023-07-13T08:18:17;100160.44;;;22.00;49.81
70833;BME280;71099;59.528;17.886;2023-07-13T08:20:43;100174.00;;;21.74;49.62
70833;BME280;71099;59.528;17.886;2023-07-13T08:23:08;100188.56;;;21.05;51.02
70833;BME280;71099;59.528;17.886;2023-07-13T08:25:34;100187.78;;;21.34;51.46
70833;BME280;71099;59.528;17.886;2023-07-13T08:27:59;100179.81;;;21.53;50.87
70833;BME280;71099;59.528;17.886;2023-07-13T08:30:25;100190.50;;;21.39;50.41
70833;BME280;71099;59.528;17.886;2023-07-13T08:32:50;100185.34;;;21.03;51.15
70833;BME280;71099;59.528;17.886;2023-07-13T08:35:15;100185.47;;;21.26;52.41
70833;BME280;71099;59.528;17.886;2023-07-13T08:37:41;100193.59;;;21.48;50.71
70833;BME280;71099;59.528;17.886;2023-07-13T08:40:10;100196.19;;;21.89;51.03
70833;BME280;71099;59.528;17.886;2023-07-13T08:42:43;100201.28;;;21.61;50.78
70833;BME280;71099;59.528;17.886;2023-07-13T08:45:20;100199.28;;;21.98;50.35
70833;BME280;71099;59.528;17.886;2023-07-13T08:47:47;100209.66;;;22.28;49.27
70833;BME280;71099;59.528;17.886;2023-07-13T08:50:15;100212.50;;;21.80;49.46
70833;BME280;71099;59.528;17.886;2023-07-13T08:52:42;100207.00;;;21.70;50.99
70833;BME280;71099;59.528;17.886;2023-07-13T08:55:21;100210.09;;;21.25;50.36
70833;BME280;71099;59.528;17.886;2023-07-13T08:57:48;100218.44;;;21.64;51.27
70833;BME280;71099;59.528;17.886;2023-07-13T09:00:16;100206.88;;;21.76;50.21
70833;BME280;71099;59.528;17.886;2023-07-13T09:05:22;100213.09;;;22.05;49.10
70833;BME280;71099;59.528;17.886;2023-07-13T09:08:14;100215.50;;;22.18;48.10
70833;BME280;71099;59.528;17.886;2023-07-13T09:10:44;100213.66;;;22.30;48.32
70833;BME280;71099;59.528;17.886;2023-07-13T09:15:42;100219.56;;;21.68;49.26
70833;BME280;71099;59.528;17.886;2023-07-13T09:18:10;100231.22;;;21.72;48.74
70833;BME280;71099;59.528;17.886;2023-07-13T09:20:37;100225.69;;;21.38;49.80
70833;BME280;71099;59.528;17.886;2023-07-13T09:23:07;100217.59;;;21.52;50.30
70833;BME280;71099;59.528;17.886;2023-07-13T09:25:37;100224.44;;;21.11;52.16
70833;BME280;71099;59.528;17.886;2023-07-13T09:28:13;100222.22;;;21.08;50.98
70833;BME280;71099;59.528;17.886;2023-07-13T09:30:43;100221.00;;;21.40;50.72
70833;BME280;71099;59.528;17.886;2023-07-13T09:33:10;100221.59;;;21.54;50.30
70833;BME280;71099;59.528;17.886;2023-07-13T09:35:35;100230.31;;;21.78;50.36
70833;BME280;71099;59.528;17.886;2023-07-13T09:38:04;100218.09;;;21.83;50.69
70833;BME280;71099;59.528;17.886;2023-07-13T09:40:56;100222.38;;;21.96;49.02
70833;BME280;71099;59.528;17.886;2023-07-13T09:43:24;100206.81;;;22.29;50.32
70833;BME280;71099;59.528;17.886;2023-07-13T09:45:49;100216.91;;;22.61;49.08
70833;BME280;71099;59.528;17.886;2023-07-13T09:48:15;100215.16;;;22.38;48.88
70833;BME280;71099;59.528;17.886;2023-07-13T09:50:42;100201.25;;;22.66;48.50
70833;BME280;71099;59.528;17.886;2023-07-13T09:53:15;100200.31;;;22.72;46.89
70833;BME280;71099;59.528;17.886;2023-07-13T09:55:41;100203.41;;;22.57;45.84
70833;BME280;71099;59.528;17.886;2023-07-13T09:58:11;100196.03;;;22.42;46.38
70833;BME280;71099;59.528;17.886;2023-07-13T10:00:37;100196.75;;;22.26;45.81
70833;BME280;71099;59.528;17.886;2023-07-13T10:05:41;100206.50;;;22.66;46.18
70833;BME280;71099;59.528;17.886;2023-07-13T10:10:43;100210.13;;;22.88;46.49
70833;BME280;71099;59.528;17.886;2023-07-13T10:16:13;100212.16;;;22.86;45.80
70833;BME280;71099;59.528;17.886;2023-07-13T10:18:44;100207.41;;;23.11;45.17
70833;BME280;71099;59.528;17.886;2023-07-13T10:21:18;100209.94;;;22.78;45.37
70833;BME280;71099;59.528;17.886;2023-07-13T10:23:45;100222.03;;;22.16;46.34
70833;BME280;71099;59.528;17.886;2023-07-13T10:26:15;100218.56;;;22.38;46.42
70833;BME280;71099;59.528;17.886;2023-07-13T10:28:41;100216.88;;;22.09;47.00
70833;BME280;71099;59.528;17.886;2023-07-13T10:31:10;100215.63;;;22.00;47.33
70833;BME280;71099;59.528;17.886;2023-07-13T10:33:36;100226.91;;;21.89;47.62
70833;BME280;71099;59.528;17.886;2023-07-13T10:36:22;100225.06;;;21.89;48.17
70833;BME280;71099;59.528;17.886;2023-07-13T10:38:50;100223.22;;;21.67;48.11
70833;BME280;71099;59.528;17.886;2023-07-13T10:41:20;100215.03;;;21.98;48.31
70833;BME280;71099;59.528;17.886;2023-07-13T10:43:47;100205.53;;;22.09;46.58
70833;BME280;71099;59.528;17.886;2023-07-13T10:46:16;100217.75;;;21.80;48.16
70833;BME280;71099;59.528;17.886;2023-07-13T10:48:43;100211.66;;;21.56;48.56
70833;BME280;71099;59.528;17.886;2023-07-13T10:51:10;100224.59;;;21.81;47.80
70833;BME280;71099;59.528;17.886;2023-07-13T10:53:36;100218.09;;;21.72;47.19
70833;BME280;71099;59.528;17.886;2023-07-13T10:56:03;100217.75;;;21.80;47.10
70833;BME280;71099;59.528;17.886;2023-07-13T10:58:41;100221.56;;;21.96;46.37
70833;BME280;71099;59.528;17.886;2023-07-13T11:01:13;100216.06;;;22.09;46.65
70833;BME280;71099;59.528;17.886;2023-07-13T11:06:12;100211.59;;;22.32;46.24
70833;BME280;71099;59.528;17.886;2023-07-13T11:18:48;100215.84;;;22.22;45.30
70833;BME280;71099;59.528;17.886;2023-07-13T11:21:17;100215.16;;;22.03;44.93
70833;BME280;71099;59.528;17.886;2023-07-13T11:23:44;100218.25;;;22.00;44.81
70833;BME280;71099;59.528;17.886;2023-07-13T11:28:54;100210.00;;;22.20;44.52
70833;BME280;71099;59.528;17.886;2023-07-13T11:31:19;100217.53;;;22.16;44.40
70833;BME280;71099;59.528;17.886;2023-07-13T11:33:51;100215.28;;;22.08;44.33
70833;BME280;71099;59.528;17.886;2023-07-13T11:36:17;100211.47;;;22.27;44.47
70833;BME280;71099;59.528;17.886;2023-07-13T11:38:57;100211.94;;;22.36;45.58
70833;BME280;71099;59.528;17.886;2023-07-13T11:41:26;100215.38;;;22.36;44.13
70833;BME280;71099;59.528;17.886;2023-07-13T11:44:01;100200.81;;;22.46;44.32
70833;BME280;71099;59.528;17.886;2023-07-13T11:46:28;100211.59;;;22.44;44.91
70833;BME280;71099;59.528;17.886;2023-07-13T11:48:53;100205.47;;;22.67;43.83
70833;BME280;71099;59.528;17.886;2023-07-13T11:53:45;100211.44;;;22.74;43.59
70833;BME280;71099;59.528;17.886;2023-07-13T11:56:11;100211.91;;;22.99;43.40
70833;BME280;71099;59.528;17.886;2023-07-13T11:58:37;100213.22;;;22.85;42.62
70833;BME280;71099;59.528;17.886;2023-07-13T12:01:03;100201.25;;;22.66;42.97
70833;BME280;71099;59.528;17.886;2023-07-13T12:03:32;100201.94;;;22.50;44.38
70833;BME280;71099;59.528;17.886;2023-07-13T12:06:00;100204.34;;;22.74;44.08
70833;BME280;71099;59.528;17.886;2023-07-13T12:08:26;100207.31;;;22.66;44.45
70833;BME280;71099;59.528;17.886;2023-07-13T12:11:05;100212.13;;;22.69;43.87
70833;BME280;71099;59.528;17.886;2023-07-13T12:13:35;100201.88;;;22.33;44.40
70833;BME280;71099;59.528;17.886;2023-07-13T12:16:00;100205.06;;;22.35;45.82
70833;BME280;71099;59.528;17.886;2023-07-13T12:18:28;100204.88;;;22.65;45.71
70833;BME280;71099;59.528;17.886;2023-07-13T12:20:55;100212.41;;;22.84;45.48
70833;BME280;71099;59.528;17.886;2023-07-13T12:23:28;100204.50;;;22.96;43.76
70833;BME280;71099;59.528;17.886;2023-07-13T12:25:53;100206.91;;;22.86;43.13
70833;BME280;71099;59.528;17.886;2023-07-13T12:28:39;100203.16;;;22.82;44.54
70833;BME280;71099;59.528;17.886;2023-07-13T12:31:19;100200.78;;;22.69;44.27
70833;BME280;71099;59.528;17.886;2023-07-13T12:33:47;100200.56;;;22.70;45.26
70833;BME280;71099;59.528;17.886;2023-07-13T12:36:12;100208.03;;;22.90;46.41
70833;BME280;71099;59.528;17.886;2023-07-13T12:38:38;100209.97;;;22.95;45.26
70833;BME280;71099;59.528;17.886;2023-07-13T12:41:03;100210.84;;;23.28;46.20
70833;BME280;71099;59.528;17.886;2023-07-13T12:43:28;100203.50;;;23.30;43.64
70833;BME280;71099;59.528;17.886;2023-07-13T12:45:58;100197.16;;;23.43;43.66
70833;BME280;71099;59.528;17.886;2023-07-13T12:48:24;100196.53;;;23.53;43.84
70833;BME280;71099;59.528;17.886;2023-07-13T12:50:50;100191.66;;;23.78;43.48
70833;BME280;71099;59.528;17.886;2023-07-13T12:53:16;100188.06;;;23.84;42.85
70833;BME280;71099;59.528;17.886;2023-07-13T12:55:47;100191.25;;;23.86;41.74
70833;BME280;71099;59.528;17.886;2023-07-13T12:58:16;100189.59;;;23.80;42.69
70833;BME280;71099;59.528;17.886;2023-07-13T13:00:47;100197.00;;;23.83;41.77
70833;BME280;71099;59.528;17.886;2023-07-13T13:05:43;100184.81;;;24.15;42.47
70833;BME280;71099;59.528;17.886;2023-07-13T13:08:10;100186.69;;;24.37;41.95
70833;BME280;71099;59.528;17.886;2023-07-13T13:10:36;100183.06;;;24.04;40.08